Time;durP1;ratioP1;P1;durP2;ratioP2;P2;SDS_P1;SDS_P2;PMS_P1;PMS_P2;Temp;Humidity;BMP_temperature;BMP_pressure;BME280_temperature;BME280_humidity;BME280_pressure;Samples;Min_cycle;Max_cycle;Signal;HPM_P1;HPM_P2
2022/01/31 00:00:12;;;;;;;;;;;-1.30;84.40;;;-2.77;80.20;95607.22;4011187;34;20255;-83
2022/01/31 00:02:44;;;;;;;;;;;-1.30;84.40;;;-2.78;79.87;95605.56;4033579;34;20223;-83
2022/01/31 00:05:13;;;;;;;;;;;-1.30;84.30;;;-2.77;80.41;95604.53;4011407;34;20080;-83
2022/01/31 00:07:41;;;;;;;;;;;-1.30;84.40;;;-2.75;80.19;95612.34;4012005;34;20233;-83
2022/01/31 00:10:12;;;;;;;;;;;-1.30;84.40;;;-2.77;80.21;95613.38;4012481;34;20211;-83
2022/01/31 00:12:49;;;;;;;;;;;-1.30;84.30;;;-2.77;80.35;95604.53;4011782;34;19994;-84
2022/01/31 00:15:19;;;;;;;;;;;-1.30;84.40;;;-2.77;80.22;95601.84;4012254;34;20226;-83
2022/01/31 00:17:48;;;;;;;;;;;-1.30;84.40;;;-2.77;80.36;95608.03;4033003;34;19920;-84
2022/01/31 00:20:16;;;;;;;;;;;-1.30;84.40;;;-2.76;80.00;95600.84;4034156;34;20562;-84
2022/01/31 00:22:45;;;;;;;;;;;-1.30;84.40;;;-2.77;80.42;95608.03;4033297;34;19911;-83
2022/01/31 00:25:13;;;;;;;;;;;-1.30;84.40;;;-2.78;80.51;95601.03;4013980;34;20223;-83
2022/01/31 00:27:41;;;;;;;;;;;-1.30;84.40;;;-2.75;80.34;95604.31;4036708;34;19911;-83
2022/01/31 00:30:11;;;;;;;;;;;-1.30;84.40;;;-2.75;80.14;95598.97;4012799;34;20201;-84
2022/01/31 00:32:41;;;;;;;;;;;-1.30;84.50;;;-2.76;80.39;95598.16;4033873;34;20296;-83
2022/01/31 00:35:10;;;;;;;;;;;-1.30;84.50;;;-2.74;80.43;95597.94;4011529;34;20528;-83
2022/01/31 00:37:38;;;;;;;;;;;-1.30;84.50;;;-2.76;80.29;95590.13;4032836;34;20222;-83
2022/01/31 00:40:08;;;;;;;;;;;-1.30;84.50;;;-2.77;79.90;95600.00;4032964;34;20245;-83
2022/01/31 00:42:37;;;;;;;;;;;-1.30;84.40;;;-2.75;80.25;95598.97;4011472;34;20211;-84
2022/01/31 00:45:13;;;;;;;;;;;-1.30;84.40;;;-2.75;80.16;95598.97;4011142;34;19911;-83
2022/01/31 00:47:46;;;;;;;;;;;-1.30;84.50;;;-2.75;80.26;95604.31;4011892;34;19911;-83
2022/01/31 00:50:17;;;;;;;;;;;-1.30;84.40;;;-2.74;80.31;95605.97;4030475;34;19911;-84
2022/01/31 00:52:46;;;;;;;;;;;-1.30;84.40;;;-2.75;80.29;95598.97;4008566;34;19904;-84
2022/01/31 00:55:15;;;;;;;;;;;-1.30;84.40;;;-2.73;80.13;95596.91;4009717;34;20092;-84
2022/01/31 00:57:43;;;;;;;;;;;-1.30;84.40;;;-2.75;80.21;95590.94;4008377;34;20202;-85
2022/01/31 01:00:13;;;;;;;;;;;-1.30;84.40;;;-2.75;80.30;95593.59;4012342;34;20256;-82
2022/01/31 01:02:43;;;;;;;;;;;-1.30;84.40;;;-2.74;80.11;95604.13;4012354;34;19911;-81
2022/01/31 01:05:12;;;;;;;;;;;-1.30;84.40;;;-2.74;80.18;95601.47;4012697;34;19911;-83
2022/01/31 01:07:45;;;;;;;;;;;-1.30;84.40;;;-2.73;80.54;95607.63;4014284;34;20211;-83
2022/01/31 01:10:14;;;;;;;;;;;-1.30;84.40;;;-2.75;80.44;95598.97;4016735;34;19911;-83
2022/01/31 01:12:42;;;;;;;;;;;-1.20;84.40;;;-2.75;80.50;95612.34;4016055;34;20158;-83
2022/01/31 01:15:11;;;;;;;;;;;-1.20;84.40;;;-2.73;80.50;95602.28;4017132;34;20217;-84
2022/01/31 01:17:40;;;;;;;;;;;-1.30;84.40;;;-2.73;80.10;95600.44;4017378;34;20569;-83
2022/01/31 01:20:11;;;;;;;;;;;-1.30;84.40;;;-2.73;80.14;95602.28;4039349;34;20196;-83
2022/01/31 01:22:40;;;;;;;;;;;-1.20;84.40;;;-2.73;80.13;95602.28;4016428;34;20221;-83
2022/01/31 01:25:10;;;;;;;;;;;-1.20;84.40;;;-2.74;79.97;95603.28;4038092;34;20204;-84
2022/01/31 01:27:39;;;;;;;;;;;-1.20;84.40;;;-2.73;80.35;95610.31;4015973;34;20488;-83
2022/01/31 01:30:10;;;;;;;;;;;-1.20;84.40;;;-2.74;80.16;95606.81;4017016;34;20230;-83
2022/01/31 01:32:48;;;;;;;;;;;-1.20;84.40;;;-2.73;80.65;95616.50;4016617;34;20004;-83
2022/01/31 01:35:18;;;;;;;;;;;-1.20;84.40;;;-2.73;80.46;95629.91;4015701;34;20540;-83
2022/01/31 01:37:47;;;;;;;;;;;-1.20;84.40;;;-2.72;80.24;95636.06;4015234;34;20208;-82
2022/01/31 01:40:16;;;;;;;;;;;-1.20;84.40;;;-2.72;80.42;95625.34;4016410;34;20222;-83
2022/01/31 01:42:44;;;;;;;;;;;-1.20;84.40;;;-2.73;80.41;95621.03;4016358;34;19904;-83
2022/01/31 01:45:13;;;;;;;;;;;-1.20;84.40;;;-2.73;80.11;95611.16;4016372;34;20209;-84
2022/01/31 01:47:43;;;;;;;;;;;-1.20;84.40;;;-2.72;80.50;95595.88;4014821;34;19911;-83
2022/01/31 01:50:12;;;;;;;;;;;-1.20;84.50;;;-2.73;80.39;95592.41;4014151;34;20514;-83
2022/01/31 01:52:42;;;;;;;;;;;-1.20;84.40;;;-2.74;80.27;95595.25;4013686;34;19908;-83
2022/01/31 01:55:11;;;;;;;;;;;-1.20;84.50;;;-2.72;80.33;95606.59;4015449;34;19928;-83
2022/01/31 01:57:40;;;;;;;;;;;-1.20;84.50;;;-2.73;80.57;95596.91;4037595;34;19912;-84
2022/01/31 02:00:15;;;;;;;;;;;-1.20;84.50;;;-2.72;80.36;95603.94;4016158;34;19911;-83
2022/01/31 02:02:44;;;;;;;;;;;-1.20;84.50;;;-2.73;80.49;95604.94;4037873;34;20556;-82
2022/01/31 02:05:16;;;;;;;;;;;-1.20;84.40;;;-2.73;80.33;95613.84;4015789;34;20219;-83
2022/01/31 02:07:46;;;;;;;;;;;-1.20;84.50;;;-2.72;80.48;95611.97;4013926;34;20219;-83
2022/01/31 02:10:17;;;;;;;;;;;-1.20;84.40;;;-2.71;80.53;95622.47;4017036;34;20547;-84
2022/01/31 02:13:12;;;;;;;;;;;-1.20;84.40;;;-2.72;80.50;95614.63;4036051;34;19931;-82
2022/01/31 02:16:18;;;;;;;;;;;-1.20;84.40;;;-2.72;80.42;95610.13;4012653;34;20228;-82
2022/01/31 02:18:55;;;;;;;;;;;-1.20;84.50;;;-2.72;80.62;95603.94;4012361;34;20244;-82
2022/01/31 02:21:55;;;;;;;;;;;-1.20;84.50;;;-2.71;80.53;95605.59;4006346;34;20218;-84
2022/01/31 02:24:42;;;;;;;;;;;-1.20;84.50;;;-2.72;80.03;95612.81;4036496;34;20240;-82
2022/01/31 02:27:31;;;;;;;;;;;-1.20;84.50;;;-2.72;80.23;95598.56;4034429;34;20212;-83
2022/01/31 02:30:01;;;;;;;;;;;-1.20;84.50;;;-2.73;80.95;95603.13;4035360;34;19920;-83
2022/01/31 02:32:33;;;;;;;;;;;-1.20;84.50;;;-2.72;80.41;95604.78;4014250;34;20116;-83
2022/01/31 02:35:04;;;;;;;;;;;-1.20;84.50;;;-2.71;80.64;95605.59;4014381;34;19904;-83
2022/01/31 02:37:34;;;;;;;;;;;-1.20;84.50;;;-2.72;80.17;95599.41;4013576;34;20290;-83
2022/01/31 02:40:25;;;;;;;;;;;-1.20;84.60;;;-2.71;80.63;95598.34;4035485;34;20254;-83
2022/01/31 02:42:54;;;;;;;;;;;-1.20;84.50;;;-2.73;80.69;95592.41;4014492;34;20239;-83
2022/01/31 02:45:25;;;;;;;;;;;-1.20;84.50;;;-2.71;80.40;95601.03;4037319;34;19905;-83
2022/01/31 02:47:56;;;;;;;;;;;-1.20;84.50;;;-2.71;80.47;95589.50;4037341;34;20211;-83
2022/01/31 02:50:26;;;;;;;;;;;-1.20;84.50;;;-2.72;80.43;95596.72;4037949;34;20229;-83
2022/01/31 02:53:12;;;;;;;;;;;-1.20;84.50;;;-2.71;80.53;95594.88;4015664;34;19912;-83
2022/01/31 02:55:43;;;;;;;;;;;-1.20;84.50;;;-2.72;80.48;95593.22;4014483;34;19908;-83
2022/01/31 02:58:12;;;;;;;;;;;-1.20;84.50;;;-2.72;80.13;95588.69;4013696;34;20084;-83
2022/01/31 03:00:41;;;;;;;;;;;-1.20;84.50;;;-2.72;80.39;95595.88;4012857;34;20598;-83
2022/01/31 03:03:15;;;;;;;;;;;-1.20;84.50;;;-2.71;80.27;95592.19;4013083;34;20227;-83
2022/01/31 03:05:44;;;;;;;;;;;-1.20;84.50;;;-2.71;80.57;95584.16;4033981;34;20225;-83
2022/01/31 03:08:15;;;;;;;;;;;-1.20;84.50;;;-2.72;80.18;95587.84;4014535;34;20272;-83
2022/01/31 03:10:44;;;;;;;;;;;-1.20;84.50;;;-2.72;80.16;95583.34;4015848;34;20209;-83
2022/01/31 03:13:18;;;;;;;;;;;-1.20;84.40;;;-2.70;80.54;95583.13;4034729;34;20232;-83
2022/01/31 03:15:52;;;;;;;;;;;-1.20;84.40;;;-2.72;80.24;95577.97;4033392;34;20458;-83
2022/01/31 03:18:50;;;;;;;;;;;-1.20;84.40;;;-2.72;80.29;95583.34;4034309;34;20229;-83
2022/01/31 03:21:18;;;;;;;;;;;-1.20;84.40;;;-2.72;79.95;95582.50;4034736;34;19905;-83
2022/01/31 03:23:50;;;;;;;;;;;-1.20;84.40;;;-2.71;80.36;95578.78;4012238;34;20239;-83
2022/01/31 03:26:19;;;;;;;;;;;-1.20;84.50;;;-2.71;80.96;95586.81;4012430;34;19920;-83
2022/01/31 03:28:49;;;;;;;;;;;-1.20;84.50;;;-2.71;80.59;95581.47;4013041;34;20193;-83
2022/01/31 03:31:18;;;;;;;;;;;-1.20;84.40;;;-2.71;80.32;95584.16;4013035;34;20222;-83
2022/01/31 03:33:47;;;;;;;;;;;-1.20;84.50;;;-2.70;80.50;95596.53;4035125;34;20251;-83
2022/01/31 03:36:15;;;;;;;;;;;-1.20;84.50;;;-2.70;80.26;95591.16;4011331;34;19919;-82
2022/01/31 03:38:44;;;;;;;;;;;-1.20;84.40;;;-2.71;80.38;95595.69;4012883;34;20236;-83
2022/01/31 03:41:15;;;;;;;;;;;-1.20;84.50;;;-2.71;80.59;95594.88;4010489;34;19911;-82
2022/01/31 03:43:43;;;;;;;;;;;-1.20;84.50;;;-2.71;80.16;95600.22;4003656;34;19904;-82
2022/01/31 03:46:12;;;;;;;;;;;-1.20;84.50;;;-2.69;80.27;95603.53;4002400;34;20195;-82
2022/01/31 03:48:41;;;;;;;;;;;-1.20;84.50;;;-2.71;80.89;95601.03;4001722;34;20115;-82
2022/01/31 03:51:25;;;;;;;;;;;-1.20;84.50;;;-2.71;80.27;95603.72;4023806;34;19911;-83
2022/01/31 03:53:53;;;;;;;;;;;-1.20;84.50;;;-2.70;80.42;95601.88;4004254;34;20068;-82
2022/01/31 03:56:24;;;;;;;;;;;-1.20;84.40;;;-2.70;80.42;95607.22;4003876;34;20112;-82
2022/01/31 03:59:07;;;;;;;;;;;-1.20;84.40;;;-2.69;80.48;95604.34;3999222;34;19912;-82
2022/01/31 04:01:36;;;;;;;;;;;-1.20;84.50;;;-2.70;80.41;95602.69;3999767;34;20215;-82
2022/01/31 04:04:10;;;;;;;;;;;-1.20;84.40;;;-2.69;80.41;95606.22;3999758;34;19904;-82
2022/01/31 04:06:39;;;;;;;;;;;-1.20;84.50;;;-2.69;80.48;95603.53;3998665;34;19913;-82
2022/01/31 04:09:07;;;;;;;;;;;-1.20;84.40;;;-2.71;80.14;95611.75;3998978;34;20221;-83
2022/01/31 04:11:37;;;;;;;;;;;-1.20;84.50;;;-2.69;80.30;95612.38;3998839;34;19905;-82
2022/01/31 04:14:06;;;;;;;;;;;-1.20;84.50;;;-2.69;80.44;95617.75;3998461;34;20200;-82
2022/01/31 04:16:34;;;;;;;;;;;-1.20;84.50;;;-2.69;80.19;95625.78;3997763;34;20197;-82
2022/01/31 04:19:02;;;;;;;;;;;-1.20;84.50;;;-2.69;79.87;95622.28;4000392;35;20176;-82
2022/01/31 04:21:31;;;;;;;;;;;-1.20;84.50;;;-2.69;80.13;95631.13;3998852;35;20285;-83
2022/01/31 04:23:59;;;;;;;;;;;-1.20;84.40;;;-2.68;80.42;95648.06;4001543;34;20471;-83
2022/01/31 04:26:33;;;;;;;;;;;-1.20;84.50;;;-2.69;79.94;95652.56;4004734;35;19905;-83
2022/01/31 04:29:06;;;;;;;;;;;-1.20;84.50;;;-2.68;80.18;95653.41;4006030;35;20225;-83
2022/01/31 04:31:40;;;;;;;;;;;-1.20;84.50;;;-2.68;80.38;95653.41;4007063;35;20069;-83
2022/01/31 04:34:09;;;;;;;;;;;-1.20;84.50;;;-2.69;80.27;95646.41;4006763;35;19912;-83
2022/01/31 04:36:37;;;;;;;;;;;-1.20;84.50;;;-2.69;80.14;95657.94;4006377;35;19905;-83
2022/01/31 04:39:06;;;;;;;;;;;-1.20;84.50;;;-2.68;80.20;95659.59;4006448;35;20514;-83
2022/01/31 04:41:34;;;;;;;;;;;-1.20;84.50;;;-2.69;80.41;95663.28;4007621;35;20120;-83
2022/01/31 04:44:07;;;;;;;;;;;-1.20;84.40;;;-2.69;80.14;95665.16;4007378;35;19904;-82
2022/01/31 04:46:35;;;;;;;;;;;-1.20;84.40;;;-2.68;80.31;95664.13;4006892;35;19904;-83
2022/01/31 04:49:04;;;;;;;;;;;-1.20;84.40;;;-2.68;80.41;95669.50;4007976;35;20207;-83
2022/01/31 04:51:32;;;;;;;;;;;-1.20;84.40;;;-2.67;80.52;95674.63;4008822;35;19905;-83
2022/01/31 04:54:01;;;;;;;;;;;-1.20;84.40;;;-2.68;80.02;95669.50;4006855;35;19905;-82
2022/01/31 04:56:29;;;;;;;;;;;-1.20;84.40;;;-2.67;80.35;95676.50;4007455;35;20232;-83
2022/01/31 04:58:57;;;;;;;;;;;-1.20;84.50;;;-2.68;80.46;95681.00;4008105;35;19917;-83
2022/01/31 05:01:28;;;;;;;;;;;-1.20;84.40;;;-2.67;80.42;95679.19;4007784;35;20221;-83
2022/01/31 05:03:56;;;;;;;;;;;-1.20;84.40;;;-2.67;80.09;95676.50;4007358;35;20222;-83
2022/01/31 05:06:31;;;;;;;;;;;-1.20;84.40;;;-2.67;80.30;95673.81;4008722;35;19905;-83
2022/01/31 05:09:00;;;;;;;;;;;-1.20;84.40;;;-2.67;80.44;95681.84;4008563;34;19928;-83
2022/01/31 05:11:28;;;;;;;;;;;-1.20;84.40;;;-2.67;80.44;95673.81;4018481;34;20220;-83
2022/01/31 05:13:57;;;;;;;;;;;-1.20;84.40;;;-2.67;80.12;95681.84;4036495;34;19992;-83
2022/01/31 05:16:26;;;;;;;;;;;-1.20;84.40;;;-2.67;80.34;95682.66;4035445;34;20222;-83
2022/01/31 05:18:55;;;;;;;;;;;-1.20;84.40;;;-2.67;80.24;95684.53;4035380;34;20246;-83
2022/01/31 05:21:23;;;;;;;;;;;-1.20;84.40;;;-2.67;80.01;95685.34;4036777;34;19905;-83
2022/01/31 05:23:52;;;;;;;;;;;-1.20;84.40;;;-2.67;79.86;95679.19;4034867;34;19904;-83
2022/01/31 05:26:20;;;;;;;;;;;-1.20;84.40;;;-2.67;80.39;95684.53;4035955;34;20198;-83
2022/01/31 05:28:48;;;;;;;;;;;-1.20;84.40;;;-2.68;80.42;95689.06;4036727;34;19905;-83
2022/01/31 05:31:17;;;;;;;;;;;-1.20;84.40;;;-2.66;80.51;95694.22;4035150;34;20268;-83
2022/01/31 05:33:47;;;;;;;;;;;-1.20;84.40;;;-2.66;80.68;95691.56;4035851;34;19905;-83
2022/01/31 05:36:15;;;;;;;;;;;-1.20;84.30;;;-2.66;80.09;95696.91;4035618;34;20238;-83
2022/01/31 05:38:44;;;;;;;;;;;-1.20;84.40;;;-2.67;80.46;95692.56;4036338;34;20128;-83
2022/01/31 05:41:18;;;;;;;;;;;-1.20;84.40;;;-2.66;80.13;95688.88;4035081;34;20240;-83
2022/01/31 05:43:47;;;;;;;;;;;-1.20;84.40;;;-2.67;80.19;95687.22;4035503;34;19905;-82
2022/01/31 05:46:15;;;;;;;;;;;-1.20;84.30;;;-2.65;79.97;95687.84;4034791;34;20236;-84
2022/01/31 05:48:44;;;;;;;;;;;-1.20;84.40;;;-2.66;80.34;95684.31;4035245;34;19911;-83
2022/01/31 05:51:16;;;;;;;;;;;-1.20;84.30;;;-2.66;80.09;95694.22;4035519;34;20218;-84
2022/01/31 05:53:45;;;;;;;;;;;-1.20;84.30;;;-2.66;80.09;95688.88;4033890;34;19905;-84
2022/01/31 05:56:13;;;;;;;;;;;-1.20;84.20;;;-2.65;80.35;95695.88;4032836;34;20550;-84
2022/01/31 05:58:42;;;;;;;;;;;-1.20;84.20;;;-2.65;80.13;95696.69;4033530;34;20590;-84
2022/01/31 06:01:10;;;;;;;;;;;-1.20;84.30;;;-2.64;80.28;95697.50;4033096;34;19912;-84
2022/01/31 06:03:39;;;;;;;;;;;-1.20;84.30;;;-2.64;79.85;95692.16;4033258;34;20531;-84
2022/01/31 06:06:07;;;;;;;;;;;-1.20;84.30;;;-2.65;80.31;95690.53;4011576;34;19905;-84
2022/01/31 06:08:37;;;;;;;;;;;-1.10;84.40;;;-2.63;80.27;95691.97;4034505;34;20217;-84
2022/01/31 06:11:06;;;;;;;;;;;-1.10;84.40;;;-2.59;80.45;95689.72;4035361;34;20227;-84
2022/01/31 06:13:34;;;;;;;;;;;-1.10;84.30;;;-2.56;80.40;95683.13;4014452;34;19905;-84
2022/01/31 06:16:03;;;;;;;;;;;-1.10;84.20;;;-2.54;80.08;95675.72;4013750;34;20513;-84
2022/01/31 06:18:31;;;;;;;;;;;-1.10;84.20;;;-2.52;79.69;95679.00;4014092;34;19927;-84
2022/01/31 06:21:00;;;;;;;;;;;-1.00;84.00;;;-2.48;79.63;95674.91;4035493;34;20213;-83
2022/01/31 06:23:29;;;;;;;;;;;-1.00;84.00;;;-2.43;79.81;95671.63;4035666;34;19905;-84
2022/01/31 06:25:59;;;;;;;;;;;-1.00;83.80;;;-2.39;79.85;95662.97;4015190;34;19908;-84
2022/01/31 06:28:27;;;;;;;;;;;-0.90;83.70;;;-2.36;79.51;95656.38;4015135;34;19912;-84
2022/01/31 06:31:01;;;;;;;;;;;-0.90;83.60;;;-2.31;79.54;95660.09;4016552;34;20224;-83
2022/01/31 06:33:29;;;;;;;;;;;-0.80;83.50;;;-2.27;79.45;95649.81;4035837;34;19912;-84
2022/01/31 06:35:58;;;;;;;;;;;-0.80;83.40;;;-2.22;79.08;95651.88;4017166;34;20222;-84
2022/01/31 06:38:28;;;;;;;;;;;-0.70;83.40;;;-2.18;79.44;95643.22;4037161;34;19908;-83
2022/01/31 06:40:58;;;;;;;;;;;-0.70;83.40;;;-2.14;79.09;95658.91;4025447;34;20127;-84
2022/01/31 06:43:26;;;;;;;;;;;-0.70;83.30;;;-2.12;79.32;95646.09;4008777;34;19909;-83
2022/01/31 06:45:55;;;;;;;;;;;-0.60;83.20;;;-2.06;79.33;95664.06;4008002;34;20600;-83
2022/01/31 06:48:23;;;;;;;;;;;-0.60;83.10;;;-2.03;79.27;95658.31;4005528;34;20474;-84
2022/01/31 06:50:52;;;;;;;;;;;-0.60;83.10;;;-1.99;78.95;95664.06;4005312;34;19905;-84
2022/01/31 06:53:26;;;;;;;;;;;-0.50;83.00;;;-1.96;78.97;95667.16;4027753;34;20198;-83
2022/01/31 06:55:54;;;;;;;;;;;-0.50;83.00;;;-1.93;78.80;95669.44;4004442;34;20214;-84
2022/01/31 06:58:24;;;;;;;;;;;-0.50;82.90;;;-1.91;78.88;95664.72;4003689;34;19912;-84
2022/01/31 07:00:53;;;;;;;;;;;-0.40;82.80;;;-1.87;78.63;95673.16;4002970;34;20208;-84
2022/01/31 07:03:21;;;;;;;;;;;-0.40;82.70;;;-1.85;78.37;95674.59;4023833;34;19904;-83
2022/01/31 07:05:50;;;;;;;;;;;-0.40;82.60;;;-1.83;78.78;95670.88;4030376;34;20210;-83
2022/01/31 07:08:19;;;;;;;;;;;-0.30;82.60;;;-1.78;78.42;95674.59;4023428;34;19905;-83
2022/01/31 07:10:51;;;;;;;;;;;-0.30;82.50;;;-1.75;78.50;95674.19;4001538;34;20218;-83
2022/01/31 07:13:37;;;;;;;;;;;-0.30;82.40;;;-1.72;78.40;95664.91;4025485;34;20246;-84
2022/01/31 07:16:07;;;;;;;;;;;-0.20;82.30;;;-1.67;78.43;95664.28;4000798;34;19904;-84
2022/01/31 07:18:37;;;;;;;;;;;-0.20;82.20;;;-1.68;78.47;95657.28;4001798;34;20227;-84
2022/01/31 07:21:05;;;;;;;;;;;-0.20;82.00;;;-1.63;77.91;95661.00;4004049;34;20108;-83
2022/01/31 07:23:51;;;;;;;;;;;-0.20;81.90;;;-1.61;78.34;95652.72;4025680;34;20233;-83
2022/01/31 07:26:20;;;;;;;;;;;-0.10;82.00;;;-1.58;78.04;95647.78;4002899;34;20241;-83
2022/01/31 07:28:51;;;;;;;;;;;-0.10;82.00;;;-1.55;77.96;95652.72;4003835;34;19909;-83
2022/01/31 07:31:21;;;;;;;;;;;-0.10;81.90;;;-1.51;78.19;95644.28;4003907;34;19912;-83
2022/01/31 07:33:49;;;;;;;;;;;-0.10;81.90;;;-1.50;77.97;95627.94;4030956;34;19904;-84
2022/01/31 07:36:18;;;;;;;;;;;-0.10;81.90;;;-1.47;77.70;95626.69;4031928;34;20219;-84
2022/01/31 07:38:46;;;;;;;;;;;0.00;81.90;;;-1.46;77.81;95623.81;4032221;34;19912;-84
2022/01/31 07:41:15;;;;;;;;;;;0.00;81.80;;;-1.44;78.07;95626.28;4028186;34;20596;-83
2022/01/31 07:43:44;;;;;;;;;;;0.00;81.70;;;-1.41;78.04;95624.00;4029619;34;19905;-83
2022/01/31 07:46:13;;;;;;;;;;;0.00;81.70;;;-1.40;77.89;95612.22;4009840;34;19904;-83
2022/01/31 07:48:43;;;;;;;;;;;0.00;81.60;;;-1.35;77.50;95621.53;4010102;34;19912;-83
2022/01/31 07:51:12;;;;;;;;;;;0.10;81.60;;;-1.33;77.82;95614.09;4031825;34;20360;-84
2022/01/31 07:53:40;;;;;;;;;;;0.10;81.70;;;-1.29;77.85;95607.28;4010084;34;20215;-83
2022/01/31 07:56:09;;;;;;;;;;;0.10;81.70;;;-1.26;77.84;95606.81;4010305;34;19905;-83
2022/01/31 07:58:38;;;;;;;;;;;0.10;81.70;;;-1.24;77.42;95605.59;4009897;34;20227;-84
2022/01/31 08:01:07;;;;;;;;;;;0.20;81.60;;;-1.20;77.51;95607.84;4047703;34;19912;-83
2022/01/31 08:03:36;;;;;;;;;;;0.20;81.40;;;-1.17;77.09;95610.09;4032312;34;20108;-83
2022/01/31 08:06:06;;;;;;;;;;;0.20;81.40;;;-1.14;77.29;95610.50;4033253;34;20213;-83
2022/01/31 08:08:35;;;;;;;;;;;0.20;81.20;;;-1.10;76.69;95605.56;4032602;34;20283;-83
2022/01/31 08:11:04;;;;;;;;;;;0.30;81.20;;;-1.07;76.98;95602.44;4031835;34;20208;-83
2022/01/31 08:13:33;;;;;;;;;;;0.30;81.20;;;-1.04;76.95;95599.31;4010848;34;20200;-83
2022/01/31 08:16:09;;;;;;;;;;;0.30;81.20;;;-1.00;76.68;95605.09;4033511;34;19932;-84
2022/01/31 08:18:39;;;;;;;;;;;0.40;81.10;;;-0.96;76.86;95609.00;4012605;34;19912;-83
2022/01/31 08:21:09;;;;;;;;;;;0.40;81.80;;;-0.95;76.90;95603.41;4034697;34;19904;-83
2022/01/31 08:23:38;;;;;;;;;;;0.40;80.80;;;-0.90;76.32;95604.66;4034008;34;20089;-83
2022/01/31 08:26:10;;;;;;;;;;;0.40;80.60;;;-0.89;76.18;95607.09;4011736;34;20226;-83
2022/01/31 08:28:42;;;;;;;;;;;0.50;80.50;;;-0.86;76.76;95600.50;4011714;34;19911;-84
2022/01/31 08:31:16;;;;;;;;;;;0.50;80.30;;;-0.84;76.11;95606.50;4033539;34;20205;-84
2022/01/31 08:33:49;;;;;;;;;;;0.50;80.20;;;-0.83;76.24;95597.38;4011527;34;20218;-83
2022/01/31 08:36:18;;;;;;;;;;;0.50;80.10;;;-0.82;76.02;95581.06;4011697;34;20226;-84
2022/01/31 08:38:47;;;;;;;;;;;0.60;80.00;;;-0.80;75.96;95589.72;4011900;34;20238;-83
2022/01/31 08:41:15;;;;;;;;;;;0.60;79.90;;;-0.79;75.90;95587.84;4034145;34;19912;-83
2022/01/31 08:43:44;;;;;;;;;;;0.60;79.90;;;-0.77;75.87;95588.47;4013042;34;20203;-84
2022/01/31 08:46:14;;;;;;;;;;;0.60;79.80;;;-0.77;75.71;95583.09;4035626;34;19927;-83
2022/01/31 08:48:42;;;;;;;;;;;0.60;79.70;;;-0.75;75.85;95585.56;4012328;34;20210;-84
2022/01/31 08:51:12;;;;;;;;;;;0.60;79.70;;;-0.75;75.78;95585.56;4012237;34;19909;-83
2022/01/31 08:53:42;;;;;;;;;;;0.60;79.60;;;-0.74;75.70;95577.28;4012239;34;19932;-83
2022/01/31 08:56:12;;;;;;;;;;;0.70;79.70;;;-0.73;75.55;95575.41;4011319;34;20234;-83
2022/01/31 08:58:45;;;;;;;;;;;0.70;79.80;;;-0.74;76.14;95577.28;4013194;34;19908;-83
2022/01/31 09:01:17;;;;;;;;;;;0.70;79.80;;;-0.73;75.85;95568.19;4015793;34;19919;-83
2022/01/31 09:04:01;;;;;;;;;;;0.70;79.70;;;-0.72;75.70;95574.38;4037323;34;20108;-83
2022/01/31 09:06:31;;;;;;;;;;;0.70;79.60;;;-0.72;75.85;95563.63;4017204;34;20529;-83
2022/01/31 09:09:02;;;;;;;;;;;0.70;79.70;;;-0.72;76.07;95563.63;4014039;34;19905;-83
2022/01/31 09:11:31;;;;;;;;;;;0.70;79.60;;;-0.72;75.66;95559.09;4016227;34;19908;-84
2022/01/31 09:14:00;;;;;;;;;;;0.70;79.50;;;-0.72;75.65;95559.09;4037978;34;19905;-82
2022/01/31 09:16:28;;;;;;;;;;;0.70;79.50;;;-0.72;75.56;95558.25;4014436;34;19927;-84
2022/01/31 09:18:57;;;;;;;;;;;0.70;79.50;;;-0.72;75.71;95559.09;4015388;34;20247;-83
2022/01/31 09:21:25;;;;;;;;;;;0.70;79.40;;;-0.73;75.59;95546.69;4037907;34;19908;-83
2022/01/31 09:23:54;;;;;;;;;;;0.70;79.40;;;-0.74;75.59;95545.03;4015220;34;20210;-83
2022/01/31 09:26:24;;;;;;;;;;;0.70;79.40;;;-0.72;75.36;95544.81;4034028;34;20245;-83
2022/01/31 09:28:53;;;;;;;;;;;0.70;79.40;;;-0.74;75.77;95534.28;4032868;34;20214;-83
2022/01/31 09:31:22;;;;;;;;;;;0.70;79.50;;;-0.74;75.87;95528.91;4032619;34;20204;-82
2022/01/31 09:33:51;;;;;;;;;;;0.70;80.40;;;-0.74;75.66;95520.84;4011617;34;19911;-83
2022/01/31 09:36:22;;;;;;;;;;;0.70;79.80;;;-0.74;76.02;95520.00;4010149;34;20476;-83
2022/01/31 09:38:50;;;;;;;;;;;0.70;79.90;;;-0.77;75.93;95529.34;4032114;34;20212;-82
2022/01/31 09:41:22;;;;;;;;;;;0.70;79.90;;;-0.78;76.35;95522.31;4009917;34;19908;-83
2022/01/31 09:44:05;;;;;;;;;;;0.70;79.80;;;-0.79;76.29;95505.38;4009399;34;20211;-83
2022/01/31 09:49:23;;;;;;;;;;;0.70;80.00;;;-0.80;76.44;95508.25;4032809;34;19913;-83
2022/01/31 09:51:52;;;;;;;;;;;0.70;80.10;;;-0.81;76.36;95504.75;4010131;34;19912;-82
2022/01/31 09:54:20;;;;;;;;;;;0.70;80.90;;;-0.81;76.58;95498.56;4009870;34;20219;-83
2022/01/31 09:56:49;;;;;;;;;;;0.60;79.80;;;-0.83;76.30;95482.66;4009166;34;19941;-83
2022/01/31 09:59:18;;;;;;;;;;;0.70;80.10;;;-0.84;76.22;95485.56;4010531;34;20483;-83
2022/01/31 10:01:52;;;;;;;;;;;0.70;80.00;;;-0.83;76.23;95471.06;4010815;34;20779;-83
2022/01/31 10:04:22;;;;;;;;;;;0.70;79.90;;;-0.83;76.62;95469.22;4032922;34;20205;-82
2022/01/31 10:06:52;;;;;;;;;;;0.70;79.80;;;-0.84;76.26;95474.81;4033331;34;19916;-83
2022/01/31 10:09:21;;;;;;;;;;;0.60;79.70;;;-0.87;76.45;95478.75;4035174;34;20214;-83
2022/01/31 10:11:51;;;;;;;;;;;0.60;79.70;;;-0.91;76.32;95480.25;4034493;34;20584;-82
2022/01/31 10:17:23;;;;;;;;;;;0.60;79.80;;;-0.97;76.46;95479.22;4032834;34;19904;-83
2022/01/31 10:19:52;;;;;;;;;;;0.50;79.80;;;-0.97;76.63;95471.16;4011090;34;19905;-83
2022/01/31 10:22:22;;;;;;;;;;;0.50;80.10;;;-0.97;76.45;95468.47;4035370;34;20214;-83
2022/01/31 10:24:53;;;;;;;;;;;0.50;80.00;;;-0.96;76.62;95459.38;4013428;34;19910;-83
2022/01/31 10:27:23;;;;;;;;;;;0.50;80.10;;;-0.96;76.34;95462.06;4032759;34;20200;-83
2022/01/31 10:29:54;;;;;;;;;;;0.60;80.00;;;-0.96;76.54;95459.38;4011069;34;20264;-83
2022/01/31 10:32:28;;;;;;;;;;;0.50;79.90;;;-0.97;76.35;95465.78;4011256;34;20232;-83
2022/01/31 10:34:58;;;;;;;;;;;0.50;79.90;;;-1.02;76.22;95454.88;4011641;34;20216;-82
2022/01/31 10:37:29;;;;;;;;;;;0.50;79.90;;;-1.02;76.90;95454.03;4021319;34;19912;-83
2022/01/31 10:54:29;;;;;;;;;;;0.50;80.10;;;-1.02;76.45;95436.06;3977716;34;19912;-82
2022/01/31 10:56:59;;;;;;;;;;;0.50;80.00;;;-1.03;76.34;95429.03;3999310;34;20560;-83
2022/01/31 10:59:28;;;;;;;;;;;0.50;80.00;;;-1.04;76.40;95422.03;3999950;34;20529;-82
2022/01/31 11:01:59;;;;;;;;;;;0.50;80.00;;;-1.06;76.46;95413.34;4000761;34;20252;-83
2022/01/31 11:04:31;;;;;;;;;;;0.40;80.00;;;-1.06;76.12;95416.03;3999718;34;20320;-83
2022/01/31 11:07:03;;;;;;;;;;;0.40;79.90;;;-1.08;76.53;95410.06;3999297;34;20526;-82
2022/01/31 11:09:32;;;;;;;;;;;0.40;80.00;;;-1.09;76.83;95413.78;4002259;34;20235;-83
2022/01/31 11:12:00;;;;;;;;;;;0.40;80.10;;;-1.11;76.65;95399.78;3983733;34;20053;-83
2022/01/31 11:14:29;;;;;;;;;;;0.40;80.10;;;-1.15;76.61;95398.56;4005451;34;20246;-83
2022/01/31 11:16:59;;;;;;;;;;;0.40;80.20;;;-1.16;76.76;95402.28;4004943;34;19912;-82
2022/01/31 11:19:32;;;;;;;;;;;0.40;80.20;;;-1.16;76.71;95402.28;4005091;34;20246;-83
2022/01/31 11:22:04;;;;;;;;;;;0.30;80.30;;;-1.17;76.54;95400.63;3986145;34;20462;-83
2022/01/31 11:24:37;;;;;;;;;;;0.30;80.30;;;-1.18;76.88;95399.81;4031246;34;20220;-83
2022/01/31 11:27:10;;;;;;;;;;;0.30;80.40;;;-1.19;76.98;95397.31;4030763;34;20089;-83
2022/01/31 11:29:41;;;;;;;;;;;0.30;80.40;;;-1.22;76.80;95398.59;4031390;34;20210;-82
2022/01/31 11:32:11;;;;;;;;;;;0.30;80.50;;;-1.21;76.63;95399.41;4011725;34;19912;-83
2022/01/31 11:34:41;;;;;;;;;;;0.30;80.60;;;-1.24;77.20;95390.75;4031540;34;19912;-83
2022/01/31 11:37:10;;;;;;;;;;;0.20;80.50;;;-1.26;77.13;95383.94;4011559;34;20173;-83
2022/01/31 11:39:39;;;;;;;;;;;0.30;80.70;;;-1.28;77.08;95384.16;4032044;34;19904;-83
2022/01/31 11:42:08;;;;;;;;;;;0.20;80.70;;;-1.30;77.38;95380.88;4009084;34;20564;-83
2022/01/31 11:44:46;;;;;;;;;;;0.20;80.70;;;-1.30;77.08;95380.06;4029272;34;20202;-83
2022/01/31 11:47:16;;;;;;;;;;;0.20;80.80;;;-1.32;77.16;95379.44;4007458;34;20214;-83
2022/01/31 11:49:47;;;;;;;;;;;0.20;80.80;;;-1.35;77.22;95372.63;4033330;34;20205;-82
2022/01/31 11:52:15;;;;;;;;;;;0.20;80.90;;;-1.38;77.12;95365.03;4032496;34;20208;-82
2022/01/31 11:54:49;;;;;;;;;;;0.10;81.10;;;-1.39;77.77;95361.50;4030938;34;20241;-83